Time;durP1;ratioP1;P1;durP2;ratioP2;P2;SDS_P1;SDS_P2;PMS_P1;PMS_P2;Temp;Humidity;BMP_temperature;BMP_pressure;BME280_temperature;BME280_humidity;BME280_pressure;Samples;Min_cycle;Max_cycle;Signal;HPM_P1;HPM_P2
2021/05/10 00:01:44;;;;;;;6.10;3.90;;;23.10;94.90;;;;;;5082608;28;20036;-89
2021/05/10 00:04:11;;;;;;;4.07;3.67;;;23.10;94.90;;;;;;5073324;28;20020;-89
2021/05/10 00:06:36;;;;;;;4.63;4.05;;;23.10;95.00;;;;;;5072760;28;20563;-89
2021/05/10 00:09:04;;;;;;;5.70;4.50;;;23.10;94.90;;;;;;5080578;28;20028;-89
2021/05/10 00:11:34;;;;;;;6.78;5.10;;;23.10;94.90;;;;;;5072788;28;20081;-89
2021/05/10 00:14:00;;;;;;;6.10;5.13;;;23.10;94.90;;;;;;5072626;28;20035;-89
2021/05/10 00:16:26;;;;;;;5.97;4.90;;;23.10;94.90;;;;;;5072679;28;20173;-89
2021/05/10 00:18:52;;;;;;;6.40;4.63;;;23.10;95.00;;;;;;5055867;28;20070;-89
2021/05/10 00:21:17;;;;;;;5.38;4.28;;;23.10;95.10;;;;;;5072625;28;20033;-89
2021/05/10 00:23:43;;;;;;;5.18;4.47;;;23.10;95.10;;;;;;5072171;28;20425;-89
2021/05/10 00:26:09;;;;;;;6.57;4.45;;;23.10;95.00;;;;;;5074634;28;20024;-89
2021/05/10 00:28:34;;;;;;;4.13;3.53;;;23.10;95.00;;;;;;5074782;28;20397;-89
2021/05/10 00:31:01;;;;;;;6.20;4.05;;;23.10;95.00;;;;;;5056031;28;20051;-89
2021/05/10 00:33:26;;;;;;;5.00;3.78;;;23.10;95.10;;;;;;5056151;28;20036;-89
2021/05/10 00:35:52;;;;;;;4.93;3.85;;;23.10;95.20;;;;;;5061798;28;20032;-89
2021/05/10 00:38:18;;;;;;;4.43;3.45;;;23.10;95.20;;;;;;5072560;28;20371;-89
2021/05/10 00:40:43;;;;;;;5.10;3.70;;;23.10;95.20;;;;;;5072254;28;20386;-89
2021/05/10 00:43:09;;;;;;;4.72;3.58;;;23.10;95.20;;;;;;5072292;28;20029;-89
2021/05/10 00:45:35;;;;;;;4.70;3.80;;;23.10;95.30;;;;;;5072192;28;20044;-90
2021/05/10 00:48:02;;;;;;;4.88;4.00;;;23.10;95.30;;;;;;5059013;28;20029;-89
2021/05/10 00:50:28;;;;;;;3.88;3.55;;;23.10;95.30;;;;;;5073419;28;20021;-89
2021/05/10 00:52:54;;;;;;;4.10;3.20;;;23.10;95.30;;;;;;5055200;28;20062;-89
2021/05/10 00:55:20;;;;;;;3.72;3.33;;;23.10;95.30;;;;;;5074028;28;20486;-92
2021/05/10 00:57:49;;;;;;;4.13;3.40;;;23.10;95.30;;;;;;5073145;28;20039;-89
2021/05/10 01:00:15;;;;;;;4.15;3.30;;;23.10;95.30;;;;;;5073592;28;20020;-89
2021/05/10 01:02:43;;;;;;;4.90;3.30;;;23.10;95.20;;;;;;5055224;28;20478;-88
2021/05/10 01:05:09;;;;;;;3.85;3.17;;;23.10;95.20;;;;;;5070855;28;20064;-88
2021/05/10 01:07:35;;;;;;;4.40;3.67;;;23.10;95.20;;;;;;5041654;28;20425;-89
2021/05/10 01:10:07;;;;;;;3.58;3.28;;;23.10;95.20;;;;;;5035648;28;20029;-89
2021/05/10 01:12:33;;;;;;;4.38;3.53;;;23.10;95.20;;;;;;5035164;28;20090;-89
2021/05/10 01:14:58;;;;;;;4.15;3.10;;;23.10;95.30;;;;;;5018971;28;20029;-89
2021/05/10 01:17:24;;;;;;;4.20;3.17;;;23.10;95.20;;;;;;5023202;28;20398;-89
2021/05/10 01:19:50;;;;;;;3.63;3.15;;;23.10;95.30;;;;;;5019615;28;20489;-88
2021/05/10 01:22:17;;;;;;;4.95;3.28;;;23.10;95.30;;;;;;5039119;28;20041;-89
2021/05/10 01:24:43;;;;;;;4.53;2.65;;;23.10;95.30;;;;;;5041478;28;20059;-89
2021/05/10 01:27:10;;;;;;;4.15;3.00;;;23.10;95.30;;;;;;5013571;28;20040;-89
2021/05/10 01:29:36;;;;;;;4.53;3.58;;;23.10;95.30;;;;;;5019784;28;20037;-89
2021/05/10 01:32:02;;;;;;;3.28;2.92;;;23.00;95.30;;;;;;5002574;28;20501;-89
2021/05/10 01:34:27;;;;;;;4.13;3.38;;;23.00;95.30;;;;;;5002648;28;20071;-89
2021/05/10 01:36:53;;;;;;;4.45;3.30;;;23.10;95.20;;;;;;5035214;28;20032;-89
2021/05/10 01:39:18;;;;;;;4.60;3.38;;;23.00;95.20;;;;;;5020195;28;20037;-89
2021/05/10 01:41:44;;;;;;;3.92;3.40;;;23.00;95.20;;;;;;5002411;28;20479;-89
2021/05/10 01:44:10;;;;;;;5.75;3.53;;;23.00;95.20;;;;;;5003033;28;20040;-89
2021/05/10 01:46:35;;;;;;;3.90;3.15;;;23.00;95.10;;;;;;5019099;28;20037;-89
2021/05/10 01:49:02;;;;;;;4.40;3.22;;;23.00;95.10;;;;;;5037000;28;20082;-89
2021/05/10 01:51:27;;;;;;;4.32;3.33;;;23.00;95.20;;;;;;5034856;28;20036;-89
2021/05/10 01:53:53;;;;;;;4.35;3.42;;;23.00;95.20;;;;;;5035283;28;20027;-89
2021/05/10 01:56:19;;;;;;;3.25;2.75;;;23.10;95.20;;;;;;5039741;28;20132;-90
2021/05/10 01:58:54;;;;;;;4.97;3.00;;;23.00;95.10;;;;;;5044259;28;20040;-89
2021/05/10 02:01:21;;;;;;;4.40;3.47;;;23.00;95.20;;;;;;5053380;28;20021;-89
2021/05/10 02:03:47;;;;;;;3.55;2.90;;;23.00;95.20;;;;;;5035064;28;20054;-89
2021/05/10 02:06:13;;;;;;;4.18;2.75;;;23.00;95.20;;;;;;5057213;28;20053;-90
2021/05/10 02:08:39;;;;;;;4.47;2.85;;;23.00;95.20;;;;;;5024768;28;20041;-89
2021/05/10 02:11:05;;;;;;;3.50;2.80;;;23.10;95.20;;;;;;5022219;28;20178;-89
2021/05/10 02:13:30;;;;;;;4.20;3.28;;;23.00;95.10;;;;;;5006058;28;20439;-89
2021/05/10 02:15:58;;;;;;;3.38;2.90;;;23.00;95.10;;;;;;5040624;28;20110;-89
2021/05/10 02:18:26;;;;;;;3.28;2.67;;;23.00;95.10;;;;;;5022246;28;20033;-89
2021/05/10 02:20:52;;;;;;;5.35;3.10;;;23.00;95.20;;;;;;5038469;28;20075;-90
2021/05/10 02:23:20;;;;;;;3.50;2.95;;;23.00;95.10;;;;;;5044172;28;20041;-89
2021/05/10 02:25:54;;;;;;;5.80;3.08;;;23.00;95.10;;;;;;5022055;28;20495;-90
2021/05/10 02:28:23;;;;;;;4.30;2.97;;;23.00;95.00;;;;;;5038629;28;20497;-90
2021/05/10 02:30:50;;;;;;;3.83;2.80;;;23.00;95.00;;;;;;5038380;28;20497;-89
2021/05/10 02:33:20;;;;;;;3.38;2.80;;;23.00;95.00;;;;;;5038580;28;20032;-90
2021/05/10 02:35:50;;;;;;;3.70;3.00;;;23.00;95.00;;;;;;5039194;28;20080;-92
2021/05/10 02:38:16;;;;;;;3.40;2.80;;;23.00;95.00;;;;;;5038637;28;20486;-89
2021/05/10 02:40:43;;;;;;;3.60;2.65;;;23.00;95.00;;;;;;5057435;28;20025;-89
2021/05/10 02:43:09;;;;;;;4.22;2.80;;;23.00;94.90;;;;;;5021775;28;20056;-90
2021/05/10 02:45:35;;;;;;;5.30;3.28;;;23.00;95.00;;;;;;5021961;28;20037;-89
2021/05/10 02:48:02;;;;;;;5.07;3.03;;;23.00;94.90;;;;;;5021712;28;20475;-88
2021/05/10 02:50:28;;;;;;;4.25;3.00;;;23.00;95.00;;;;;;5043181;28;20044;-90
2021/05/10 02:52:54;;;;;;;6.05;3.22;;;23.00;94.90;;;;;;5039137;28;20039;-89
2021/05/10 02:55:20;;;;;;;2.83;2.30;;;23.00;94.90;;;;;;5041938;28;20162;-89
2021/05/10 02:57:47;;;;;;;4.90;3.08;;;23.00;94.90;;;;;;5060691;28;20068;-90
2021/05/10 03:00:15;;;;;;;2.65;2.42;;;22.90;94.90;;;;;;5061588;28;20028;-90
2021/05/10 03:02:41;;;;;;;2.85;2.55;;;22.90;94.80;;;;;;5028562;28;20059;-89
2021/05/10 03:05:08;;;;;;;4.38;2.75;;;22.90;94.90;;;;;;5038460;28;20028;-89
2021/05/10 03:07:35;;;;;;;3.55;2.58;;;22.90;94.80;;;;;;5051028;28;20044;-89
2021/05/10 03:10:06;;;;;;;4.25;3.05;;;22.90;94.80;;;;;;5074010;28;20064;-89
2021/05/10 03:12:32;;;;;;;3.03;2.58;;;22.90;94.90;;;;;;5074031;28;20040;-89
2021/05/10 03:14:57;;;;;;;3.08;2.78;;;22.90;94.80;;;;;;5059267;28;20103;-89
2021/05/10 03:17:23;;;;;;;4.22;2.83;;;22.90;94.70;;;;;;5057358;28;20098;-89
2021/05/10 03:19:49;;;;;;;3.22;2.90;;;23.00;94.80;;;;;;5057371;28;20470;-89
2021/05/10 03:22:15;;;;;;;3.22;2.92;;;23.00;94.70;;;;;;5073361;28;20025;-89
2021/05/10 03:24:42;;;;;;;3.40;2.70;;;22.90;94.60;;;;;;5075377;28;20423;-89
2021/05/10 03:27:08;;;;;;;4.28;2.90;;;22.90;94.60;;;;;;5058710;28;20029;-89
2021/05/10 03:29:34;;;;;;;4.32;3.20;;;22.90;94.60;;;;;;5057246;28;20035;-89
2021/05/10 03:32:00;;;;;;;3.30;2.70;;;22.90;94.60;;;;;;5057019;28;20044;-89
2021/05/10 03:34:25;;;;;;;3.65;3.00;;;22.90;94.70;;;;;;5073762;28;20036;-89
2021/05/10 03:36:51;;;;;;;3.72;3.22;;;22.90;94.60;;;;;;5058821;28;20029;-89
2021/05/10 03:39:17;;;;;;;4.20;2.67;;;22.90;94.60;;;;;;5042312;28;20115;-89
2021/05/10 03:41:42;;;;;;;4.40;2.90;;;22.90;94.60;;;;;;5056725;28;20102;-89
2021/05/10 03:44:08;;;;;;;4.20;2.95;;;22.90;94.60;;;;;;5056735;28;20368;-89
2021/05/10 03:46:34;;;;;;;3.78;2.97;;;22.90;94.60;;;;;;5077509;28;20071;-90
2021/05/10 03:48:59;;;;;;;3.08;2.65;;;22.90;94.60;;;;;;5039740;28;20036;-89
2021/05/10 03:51:25;;;;;;;3.15;2.72;;;22.90;94.70;;;;;;5056698;28;20062;-89
2021/05/10 03:53:51;;;;;;;4.28;2.80;;;22.90;95.00;;;;;;5077121;28;20474;-89
2021/05/10 03:56:16;;;;;;;4.22;2.85;;;22.90;94.80;;;;;;5058490;28;20036;-89
2021/05/10 03:58:42;;;;;;;3.08;2.78;;;22.90;94.80;;;;;;5040319;28;20462;-89
2021/05/10 04:01:09;;;;;;;4.18;3.33;;;22.90;94.80;;;;;;5056221;28;20428;-89
2021/05/10 04:16:13;;;;;;;4.88;2.80;;;22.90;94.60;;;;;;5053964;28;20029;-89
2021/05/10 04:18:39;;;;;;;3.03;2.72;;;22.90;94.60;;;;;;5026005;28;20033;-90
2021/05/10 04:21:05;;;;;;;3.42;2.70;;;22.90;94.50;;;;;;5019429;28;20465;-89
2021/05/10 04:23:30;;;;;;;4.38;3.22;;;22.90;94.50;;;;;;5019436;28;20051;-90
2021/05/10 04:25:56;;;;;;;3.47;3.17;;;22.90;94.50;;;;;;5019788;28;20485;-90
2021/05/10 04:28:23;;;;;;;3.45;2.65;;;22.90;94.60;;;;;;5025087;28;20545;-89
2021/05/10 04:30:51;;;;;;;2.85;2.53;;;22.90;94.60;;;;;;5054069;28;20546;-89
2021/05/10 04:33:28;;;;;;;3.25;2.78;;;22.90;94.70;;;;;;5053662;28;20033;-89
2021/05/10 04:35:54;;;;;;;3.63;2.97;;;22.90;94.70;;;;;;5055578;28;20475;-89
2021/05/10 04:38:20;;;;;;;3.88;2.80;;;22.90;94.70;;;;;;5042817;28;20519;-90
2021/05/10 04:40:46;;;;;;;3.17;2.65;;;22.90;94.70;;;;;;5059042;28;20036;-89
2021/05/10 04:43:12;;;;;;;4.85;2.70;;;22.90;94.60;;;;;;5055732;28;20029;-92
2021/05/10 04:45:38;;;;;;;3.92;3.10;;;22.90;94.60;;;;;;5036335;28;20444;-90
2021/05/10 04:48:05;;;;;;;3.90;2.92;;;22.90;94.60;;;;;;5019838;28;20044;-90
2021/05/10 04:50:31;;;;;;;4.18;2.80;;;22.90;94.60;;;;;;5041383;28;20029;-90
2021/05/10 04:52:57;;;;;;;3.67;2.92;;;22.90;94.60;;;;;;5037822;28;20033;-90
2021/05/10 04:55:23;;;;;;;3.08;2.78;;;22.90;94.60;;;;;;5022283;28;20041;-89
2021/05/10 04:57:48;;;;;;;3.38;2.60;;;22.90;94.50;;;;;;5019592;28;20033;-89
2021/05/10 05:00:16;;;;;;;3.33;2.92;;;22.90;94.50;;;;;;5039467;28;20367;-90
2021/05/10 05:02:42;;;;;;;4.00;2.88;;;22.90;94.50;;;;;;5035566;28;20068;-90
2021/05/10 05:05:09;;;;;;;3.88;3.30;;;22.90;94.50;;;;;;5035526;28;20048;-90
2021/05/10 05:07:35;;;;;;;4.00;3.40;;;23.00;94.50;;;;;;5066936;28;20052;-90
2021/05/10 05:10:02;;;;;;;4.15;3.75;;;22.90;94.50;;;;;;5056172;28;20504;-90
2021/05/10 05:12:31;;;;;;;7.15;3.75;;;22.90;94.60;;;;;;5072532;28;20028;-90
2021/05/10 05:14:56;;;;;;;4.70;4.10;;;22.90;94.70;;;;;;5056218;28;20494;-90
2021/05/10 05:17:22;;;;;;;5.70;4.38;;;22.90;94.80;;;;;;5056897;28;20077;-88
2021/05/10 05:19:47;;;;;;;6.65;4.68;;;22.90;94.70;;;;;;5072668;28;20070;-91
2021/05/10 05:22:15;;;;;;;5.30;4.03;;;22.90;94.70;;;;;;5060941;28;20037;-88
2021/05/10 05:24:41;;;;;;;5.18;4.30;;;22.90;94.70;;;;;;5075959;28;20110;-88
2021/05/10 05:27:07;;;;;;;5.30;4.13;;;22.90;94.60;;;;;;5071863;28;20481;-88
2021/05/10 05:29:32;;;;;;;7.00;4.30;;;22.90;94.60;;;;;;5074062;28;20039;-89
2021/05/10 05:31:59;;;;;;;5.43;4.15;;;22.90;94.50;;;;;;5075833;28;20036;-88
2021/05/10 05:34:25;;;;;;;5.32;4.55;;;22.90;94.50;;;;;;5073446;28;20025;-89
2021/05/10 05:36:50;;;;;;;4.95;4.45;;;22.90;94.40;;;;;;5056036;28;20047;-89
2021/05/10 05:39:16;;;;;;;7.18;4.53;;;23.00;94.50;;;;;;5078819;28;20024;-89
2021/05/10 05:41:42;;;;;;;6.95;4.60;;;23.00;94.50;;;;;;5055865;28;20032;-89
2021/05/10 05:44:08;;;;;;;5.30;4.25;;;23.00;94.50;;;;;;5056119;28;20029;-90
2021/05/10 05:46:39;;;;;;;5.55;4.32;;;23.00;94.50;;;;;;5059279;28;20032;-90
2021/05/10 05:49:07;;;;;;;6.28;4.40;;;23.00;94.40;;;;;;5080977;28;20040;-89
2021/05/10 05:51:33;;;;;;;5.93;4.60;;;23.00;94.40;;;;;;5075456;28;20047;-89
2021/05/10 05:53:59;;;;;;;5.28;4.45;;;23.00;94.40;;;;;;5075483;28;20545;-89
2021/05/10 05:56:26;;;;;;;6.47;4.45;;;23.00;94.40;;;;;;5075353;28;20017;-90
2021/05/10 05:58:51;;;;;;;7.90;5.20;;;23.00;94.40;;;;;;5075587;28;20035;-89
2021/05/10 06:01:18;;;;;;;8.23;5.28;;;23.00;94.40;;;;;;5075981;28;20029;-92
2021/05/10 06:03:43;;;;;;;5.40;4.32;;;23.00;94.30;;;;;;5076784;28;20037;-88
2021/05/10 06:06:10;;;;;;;6.50;5.03;;;23.00;94.30;;;;;;5075346;28;20057;-88
2021/05/10 06:08:37;;;;;;;7.95;5.45;;;23.00;94.30;;;;;;5075492;28;20072;-88
2021/05/10 06:11:04;;;;;;;7.75;6.80;;;23.00;94.20;;;;;;5075137;28;20501;-89
2021/05/10 06:13:30;;;;;;;9.45;7.72;;;23.10;94.20;;;;;;5076364;28;20024;-89
2021/05/10 06:15:55;;;;;;;12.35;9.77;;;23.10;94.10;;;;;;5075577;28;20074;-89
2021/05/10 06:18:21;;;;;;;14.98;12.43;;;23.10;94.10;;;;;;5057910;28;20032;-89
2021/05/10 06:20:47;;;;;;;20.15;15.40;;;23.10;94.00;;;;;;5075229;28;20035;-89
2021/05/10 06:23:13;;;;;;;19.85;14.63;;;23.10;94.00;;;;;;5058326;28;20470;-89
2021/05/10 06:25:39;;;;;;;25.00;21.05;;;23.10;94.00;;;;;;5075240;28;20032;-90
2021/05/10 06:28:04;;;;;;;30.80;25.30;;;23.10;94.00;;;;;;5062483;28;20458;-89
2021/05/10 06:30:30;;;;;;;29.40;23.92;;;23.10;94.00;;;;;;5058400;28;20090;-89
2021/05/10 06:32:56;;;;;;;29.05;23.58;;;23.10;93.90;;;;;;5074586;28;20033;-89
2021/05/10 06:35:22;;;;;;;27.65;23.05;;;23.10;93.90;;;;;;5074224;28;20035;-89
2021/05/10 06:37:48;;;;;;;27.73;21.52;;;23.20;93.90;;;;;;5075271;28;20120;-89
2021/05/10 06:40:19;;;;;;;25.10;19.60;;;23.20;93.90;;;;;;5077316;28;20118;-91
2021/05/10 06:42:45;;;;;;;24.80;19.15;;;23.20;93.90;;;;;;5074680;28;20082;-88
2021/05/10 06:45:11;;;;;;;24.98;18.70;;;23.20;93.90;;;;;;5075533;28;20484;-89
2021/05/10 06:47:42;;;;;;;22.20;17.60;;;23.20;93.80;;;;;;5061682;28;20040;-89
2021/05/10 06:50:08;;;;;;;22.40;17.17;;;23.20;94.10;;;;;;5074595;28;20078;-89
2021/05/10 06:52:34;;;;;;;19.70;16.23;;;23.20;93.80;;;;;;5074395;28;20090;-89
2021/05/10 06:55:06;;;;;;;17.98;14.88;;;23.20;93.80;;;;;;5057568;28;20039;-91
2021/05/10 06:57:32;;;;;;;18.92;15.07;;;23.20;93.80;;;;;;5074862;28;20020;-89
2021/05/10 06:59:59;;;;;;;19.80;16.25;;;23.20;93.90;;;;;;5078662;28;20031;-89
2021/05/10 07:02:26;;;;;;;21.08;16.60;;;23.20;93.80;;;;;;5074127;28;20466;-90
2021/05/10 07:04:52;;;;;;;19.25;15.05;;;23.20;93.80;;;;;;5074136;28;20115;-89
2021/05/10 07:07:18;;;;;;;17.15;14.43;;;23.30;94.00;;;;;;5057412;28;20083;-89
2021/05/10 07:09:44;;;;;;;18.27;14.82;;;23.20;94.00;;;;;;5025043;28;20037;-89
2021/05/10 07:12:12;;;;;;;16.88;12.43;;;23.30;93.80;;;;;;5037551;28;20394;-89
2021/05/10 07:14:38;;;;;;;15.75;11.98;;;23.30;93.90;;;;;;5055547;28;20033;-89
2021/05/10 07:17:03;;;;;;;15.45;12.02;;;23.30;94.00;;;;;;5038434;28;20037;-89
2021/05/10 07:19:29;;;;;;;14.45;10.30;;;23.30;93.90;;;;;;5024118;28;20110;-89
2021/05/10 07:21:55;;;;;;;13.00;9.98;;;23.30;93.90;;;;;;5037487;28;20033;-90
2021/05/10 07:24:20;;;;;;;13.57;10.70;;;23.30;93.90;;;;;;5020828;28;20036;-90
2021/05/10 07:26:46;;;;;;;12.32;9.30;;;23.30;93.90;;;;;;5055262;28;20116;-90
2021/05/10 07:29:12;;;;;;;11.55;8.80;;;23.30;93.90;;;;;;5025155;28;20021;-89
2021/05/10 07:31:38;;;;;;;12.10;8.35;;;23.30;94.00;;;;;;5037415;28;20029;-90
2021/05/10 07:34:04;;;;;;;10.60;8.77;;;23.30;94.10;;;;;;5004778;28;20029;-89
2021/05/10 07:36:30;;;;;;;8.90;7.40;;;23.30;94.10;;;;;;5055838;28;20044;-89
2021/05/10 07:38:55;;;;;;;12.15;9.02;;;23.30;94.20;;;;;;5022348;28;20033;-89
2021/05/10 07:41:21;;;;;;;11.00;9.05;;;23.30;94.20;;;;;;5038436;28;20025;-90
2021/05/10 07:43:47;;;;;;;12.93;10.30;;;23.30;94.10;;;;;;5037364;28;20033;-89
2021/05/10 07:46:12;;;;;;;13.25;9.82;;;23.30;94.10;;;;;;5037315;28;20463;-89
2021/05/10 07:48:38;;;;;;;14.85;10.18;;;23.30;94.20;;;;;;5031011;28;20059;-89
2021/05/10 07:51:04;;;;;;;13.95;10.52;;;23.30;94.10;;;;;;5061125;28;20048;-93
2021/05/10 07:53:29;;;;;;;15.32;10.93;;;23.30;94.20;;;;;;5045433;28;20475;-89
2021/05/10 07:55:56;;;;;;;15.73;12.68;;;23.30;94.20;;;;;;5024875;28;20044;-90
2021/05/10 07:58:28;;;;;;;20.13;14.88;;;23.30;94.20;;;;;;5026976;28;20033;-90
2021/05/10 08:01:06;;;;;;;21.15;15.18;;;23.30;94.20;;;;;;5027071;28;20028;-89
2021/05/10 08:03:32;;;;;;;20.67;15.90;;;23.30;94.10;;;;;;5036426;28;20483;-88
2021/05/10 08:06:01;;;;;;;23.40;16.02;;;23.30;94.10;;;;;;5036315;28;20040;-91
2021/05/10 08:08:29;;;;;;;21.92;16.27;;;23.30;94.10;;;;;;5053554;28;20501;-90
2021/05/10 08:10:55;;;;;;;23.42;16.02;;;23.30;94.10;;;;;;5033591;28;20052;-89
2021/05/10 08:13:21;;;;;;;21.88;16.20;;;23.40;94.00;;;;;;5036330;28;20036;-89
2021/05/10 08:15:46;;;;;;;18.90;14.70;;;23.40;94.00;;;;;;5036471;28;20040;-89
2021/05/10 08:18:12;;;;;;;18.73;15.45;;;23.40;94.00;;;;;;5043858;28;20029;-88
2021/05/10 08:20:39;;;;;;;19.70;15.65;;;23.40;93.90;;;;;;5020910;28;20166;-88
2021/05/10 08:23:05;;;;;;;21.55;16.05;;;23.40;94.00;;;;;;5035798;28;20032;-89
2021/05/10 08:25:31;;;;;;;20.92;15.30;;;23.40;93.90;;;;;;5036508;28;20108;-89
2021/05/10 08:27:57;;;;;;;22.05;15.20;;;23.40;93.90;;;;;;5036339;28;20430;-89
2021/05/10 08:30:23;;;;;;;21.55;16.05;;;23.40;93.80;;;;;;5035807;28;20509;-88
2021/05/10 08:32:53;;;;;;;18.58;14.45;;;23.50;93.80;;;;;;5053718;28;20096;-88
2021/05/10 08:35:18;;;;;;;18.95;14.75;;;23.50;93.80;;;;;;5020201;28;20068;-88
2021/05/10 08:37:44;;;;;;;17.73;14.50;;;23.50;93.70;;;;;;5036337;28;20468;-88
2021/05/10 08:40:10;;;;;;;19.08;15.10;;;23.50;93.70;;;;;;5020337;28;20029;-88
2021/05/10 08:42:36;;;;;;;20.50;16.92;;;23.50;93.70;;;;;;5002928;28;20076;-89
2021/05/10 08:45:03;;;;;;;21.65;16.55;;;23.50;93.70;;;;;;5054079;28;20033;-88
2021/05/10 08:47:32;;;;;;;22.55;16.92;;;23.50;93.70;;;;;;5053441;28;20033;-93
2021/05/10 08:50:00;;;;;;;24.13;18.52;;;23.50;93.70;;;;;;5040764;28;20033;-87
2021/05/10 08:52:25;;;;;;;22.20;17.75;;;23.50;93.70;;;;;;5035669;28;20037;-88
2021/05/10 08:54:51;;;;;;;22.77;17.38;;;23.60;93.70;;;;;;5035615;28;20040;-88
2021/05/10 08:57:17;;;;;;;23.88;17.85;;;23.60;93.60;;;;;;5053996;28;20082;-88
2021/05/10 08:59:43;;;;;;;22.52;17.25;;;23.60;93.50;;;;;;5053728;28;20021;-88
2021/05/10 09:02:09;;;;;;;24.70;17.73;;;23.60;93.50;;;;;;5055283;28;20040;-88
2021/05/10 09:04:40;;;;;;;25.35;17.95;;;23.60;93.50;;;;;;5035438;28;20021;-89
2021/05/10 09:07:12;;;;;;;23.92;18.25;;;23.60;93.50;;;;;;5057063;28;20032;-88
2021/05/10 09:09:59;;;;;;;26.38;20.88;;;23.60;93.50;;;;;;5052858;28;20059;-88
2021/05/10 09:12:43;;;;;;;29.23;20.35;;;23.60;93.60;;;;;;5053729;28;20159;-87
2021/05/10 09:15:36;;;;;;;21.02;15.95;;;23.60;93.70;;;;;;5053179;28;20036;-88
2021/05/10 09:18:09;;;;;;;19.33;13.80;;;23.70;93.70;;;;;;5036819;28;20013;-87
2021/05/10 09:20:42;;;;;;;17.52;13.20;;;23.70;93.70;;;;;;5057742;28;20021;-88
2021/05/10 09:23:13;;;;;;;16.85;13.00;;;23.70;93.60;;;;;;5039865;28;20401;-88
2021/05/10 09:25:46;;;;;;;17.63;12.98;;;23.70;93.60;;;;;;5039227;28;20086;-88
2021/05/10 09:28:19;;;;;;;15.48;11.63;;;23.70;93.60;;;;;;5023239;28;20021;-87
2021/05/10 09:30:50;;;;;;;13.95;10.45;;;23.70;93.50;;;;;;5039118;28;20497;-88
2021/05/10 09:33:26;;;;;;;17.73;11.60;;;23.80;93.50;;;;;;5039942;28;20036;-88
2021/05/10 09:35:56;;;;;;;13.98;10.55;;;23.80;93.40;;;;;;5042421;28;20021;-88
2021/05/10 09:38:23;;;;;;;16.50;9.95;;;23.80;93.30;;;;;;5040917;28;20360;-88
2021/05/10 09:40:55;;;;;;;12.95;9.85;;;23.90;93.20;;;;;;5056879;28;20024;-89
2021/05/10 09:43:28;;;;;;;18.08;9.27;;;23.90;93.30;;;;;;5057131;28;20029;-89
2021/05/10 09:45:56;;;;;;;14.40;8.87;;;23.90;93.50;;;;;;5056834;28;20028;-88
2021/05/10 09:48:28;;;;;;;14.50;8.95;;;23.90;93.40;;;;;;5039051;28;20259;-89
2021/05/10 09:51:02;;;;;;;12.35;7.97;;;24.00;93.20;;;;;;5060481;28;20075;-89
2021/05/10 09:53:39;;;;;;;14.05;7.28;;;24.00;92.90;;;;;;5056613;28;20504;-90
2021/05/10 09:56:25;;;;;;;12.80;9.38;;;24.00;92.80;;;;;;5056755;28;20060;-90
2021/05/10 09:58:51;;;;;;;13.63;10.02;;;24.00;92.70;;;;;;5038462;28;20083;-90
2021/05/10 10:01:17;;;;;;;17.23;12.02;;;24.00;92.60;;;;;;5027118;28;20113;-90
2021/05/10 10:03:44;;;;;;;18.40;14.57;;;24.00;92.60;;;;;;5038827;28;20360;-90
2021/05/10 10:06:18;;;;;;;24.75;15.52;;;24.00;92.60;;;;;;5056883;28;20453;-89
2021/05/10 10:08:46;;;;;;;23.90;16.90;;;24.00;92.60;;;;;;5025440;28;20055;-90
2021/05/10 10:11:17;;;;;;;21.67;15.45;;;24.10;92.60;;;;;;5075264;28;20029;-90
2021/05/10 10:13:44;;;;;;;20.17;15.93;;;24.10;92.50;;;;;;5086917;28;20471;-91
2021/05/10 10:16:10;;;;;;;21.65;16.27;;;24.10;92.40;;;;;;5075078;28;20032;-90
2021/05/10 10:18:40;;;;;;;22.75;17.08;;;24.10;92.30;;;;;;5074959;28;20028;-90
2021/05/10 10:21:08;;;;;;;21.27;15.75;;;24.20;92.30;;;;;;5078752;28;20263;-90
2021/05/10 10:23:36;;;;;;;23.45;16.42;;;24.20;92.20;;;;;;5074318;28;20033;-90
2021/05/10 10:26:09;;;;;;;25.50;17.52;;;24.20;92.10;;;;;;5074661;28;20025;-91
2021/05/10 10:28:36;;;;;;;26.42;18.33;;;24.20;92.10;;;;;;5074582;28;20110;-90
2021/05/10 10:31:16;;;;;;;26.77;19.77;;;24.20;92.00;;;;;;5073868;28;20032;-90
2021/05/10 10:33:49;;;;;;;27.65;19.40;;;24.20;92.00;;;;;;5074544;28;20123;-90
2021/05/10 10:36:20;;;;;;;29.20;22.55;;;24.20;92.00;;;;;;5079573;28;20485;-90
2021/05/10 10:38:46;;;;;;;30.35;22.35;;;24.20;91.90;;;;;;5073870;28;20549;-91
2021/05/10 10:41:26;;;;;;;30.80;23.15;;;24.20;91.90;;;;;;5074399;28;20024;-91
2021/05/10 10:43:52;;;;;;;28.73;21.05;;;24.20;91.90;;;;;;5074134;28;20493;-91
2021/05/10 10:46:20;;;;;;;26.20;19.88;;;24.20;91.90;;;;;;5079628;28;20541;-90
2021/05/10 10:48:50;;;;;;;26.83;19.27;;;24.20;91.90;;;;;;5078472;28;20462;-91
2021/05/10 10:51:17;;;;;;;22.77;18.38;;;24.20;91.80;;;;;;5075487;28;20024;-90
2021/05/10 10:53:51;;;;;;;24.83;17.25;;;24.30;91.80;;;;;;5075059;28;20050;-90
2021/05/10 10:56:17;;;;;;;25.52;16.63;;;24.30;91.70;;;;;;5072385;28;20501;-90
2021/05/10 10:58:45;;;;;;;20.65;15.70;;;24.30;91.70;;;;;;5063628;28;20543;-92
2021/05/10 11:01:20;;;;;;;19.83;14.95;;;24.30;91.60;;;;;;5074302;28;20033;-90
2021/05/10 11:03:47;;;;;;;17.27;13.07;;;24.40;91.60;;;;;;5079502;28;20048;-90
2021/05/10 11:06:14;;;;;;;18.08;12.90;;;24.40;91.50;;;;;;5075337;28;20027;-90
2021/05/10 11:08:39;;;;;;;17.38;11.95;;;24.40;91.50;;;;;;5079822;28;20502;-90
2021/05/10 11:11:12;;;;;;;16.20;11.63;;;24.40;91.50;;;;;;5061190;28;20052;-90
2021/05/10 11:13:40;;;;;;;16.25;11.18;;;24.40;91.40;;;;;;5039924;28;20551;-90
2021/05/10 11:16:08;;;;;;;13.68;10.20;;;24.50;91.50;;;;;;5037557;28;20474;-90
2021/05/10 11:18:47;;;;;;;15.38;10.70;;;24.50;91.50;;;;;;5037190;28;20025;-90
2021/05/10 11:21:22;;;;;;;13.40;9.55;;;24.50;91.50;;;;;;5056470;28;20025;-90
2021/05/10 11:23:57;;;;;;;15.23;9.45;;;24.60;91.40;;;;;;5066078;28;20033;-90
2021/05/10 11:28:59;;;;;;;20.10;9.45;;;24.60;91.40;;;;;;5076730;27;1571144;-86
2021/05/10 11:31:44;;;;;;;13.20;7.95;;;24.50;91.80;;;;;;5111170;28;20044;-86
2021/05/10 11:34:11;;;;;;;11.27;8.00;;;24.40;91.80;;;;;;5092300;28;20031;-86
2021/05/10 11:36:39;;;;;;;9.65;6.43;;;24.30;91.90;;;;;;5111046;28;20020;-89
2021/05/10 11:39:08;;;;;;;6.72;5.15;;;24.10;92.00;;;;;;5092484;28;20035;-88
2021/05/10 11:41:35;;;;;;;5.78;5.10;;;24.00;92.20;;;;;;5092327;28;20055;-86
2021/05/10 11:44:02;;;;;;;6.53;4.57;;;23.90;92.30;;;;;;5110674;28;20058;-86
2021/05/10 11:46:35;;;;;;;6.10;4.70;;;23.80;92.50;;;;;;5091815;28;20504;-86
2021/05/10 11:49:01;;;;;;;4.63;3.67;;;23.70;92.60;;;;;;5092502;28;20430;-84
2021/05/10 11:51:26;;;;;;;4.53;3.67;;;23.60;92.70;;;;;;5110396;28;20062;-84
2021/05/10 11:53:56;;;;;;;5.10;3.72;;;23.50;92.70;;;;;;5109968;28;20262;-85
2021/05/10 11:56:31;;;;;;;5.13;3.70;;;23.50;92.90;;;;;;5091992;28;20040;-85
2021/05/10 12:01:36;;;;;;;3.28;2.92;;;23.40;93.00;;;;;;5110104;28;20032;-85
2021/05/10 12:04:36;;;;;;;3.20;2.88;;;23.40;93.10;;;;;;5075029;28;20032;-85
2021/05/10 12:07:03;;;;;;;2.40;2.20;;;23.30;93.10;;;;;;5092024;28;20036;-85
2021/05/10 12:09:40;;;;;;;2.50;2.30;;;23.20;93.10;;;;;;5110567;28;20036;-85
2021/05/10 12:12:12;;;;;;;2.42;2.22;;;23.20;93.20;;;;;;5091730;28;20474;-85
2021/05/10 12:14:38;;;;;;;3.17;2.53;;;23.20;93.20;;;;;;5092375;28;20031;-85
2021/05/10 12:17:11;;;;;;;2.22;2.03;;;23.20;93.40;;;;;;5093178;28;20032;-84
2021/05/10 12:20:01;;;;;;;2.53;2.10;;;23.20;93.20;;;;;;5116543;28;20020;-85
2021/05/10 12:22:37;;;;;;;2.78;2.20;;;23.20;93.20;;;;;;5118850;28;20055;-85
2021/05/10 12:25:25;;;;;;;2.65;1.95;;;23.20;93.30;;;;;;5114940;28;20081;-86
2021/05/10 12:28:05;;;;;;;2.15;1.95;;;23.20;93.30;;;;;;5110793;28;20097;-85
2021/05/10 12:30:41;;;;;;;2.28;2.08;;;23.10;93.30;;;;;;5110582;28;20020;-85
2021/05/10 12:33:11;;;;;;;2.53;2.00;;;23.20;93.40;;;;;;5110134;28;20024;-85
2021/05/10 12:35:48;;;;;;;2.33;2.13;;;23.10;93.30;;;;;;5092443;28;20026;-86
2021/05/10 12:38:33;;;;;;;2.10;1.83;;;23.10;93.30;;;;;;5108781;28;20028;-86
2021/05/10 12:41:01;;;;;;;3.10;2.35;;;23.10;93.30;;;;;;5077850;28;20061;-86
2021/05/10 12:43:28;;;;;;;1.77;1.55;;;23.10;93.30;;;;;;5078776;28;20489;-86
2021/05/10 12:45:56;;;;;;;2.42;2.08;;;23.10;93.30;;;;;;5095950;28;20032;-85
2021/05/10 12:48:34;;;;;;;2.08;1.73;;;23.10;93.30;;;;;;5096131;28;20081;-86
2021/05/10 12:51:07;;;;;;;3.05;2.15;;;23.10;93.30;;;;;;5077863;28;20413;-86
2021/05/10 12:53:41;;;;;;;2.42;2.10;;;23.10;93.30;;;;;;5096358;28;20108;-85
2021/05/10 12:56:12;;;;;;;2.75;1.85;;;23.10;93.30;;;;;;5095935;28;20511;-85
2021/05/10 12:58:43;;;;;;;1.75;1.65;;;23.10;93.30;;;;;;5096877;28;20031;-86
2021/05/10 13:01:17;;;;;;;2.28;2.00;;;23.10;93.30;;;;;;5095660;28;20020;-86